Time;durP1;ratioP1;P1;durP2;ratioP2;P2;SDS_P1;SDS_P2;PMS_P1;PMS_P2;Temp;Humidity;BMP_temperature;BMP_pressure;BME280_temperature;BME280_humidity;BME280_pressure;Samples;Min_cycle;Max_cycle;Signal;HPM_P1;HPM_P2
2023/04/18 00:00:01;;;;;;;9.23;7.47;;;;;;;9.30;52.06;101963.75;683331;29;1238;-83
2023/04/18 00:00:32;;;;;;;9.00;7.40;;;;;;;9.32;52.02;101964.72;685790;28;866;-83
2023/04/18 00:00:52;;;;;;;8.35;7.45;;;;;;;9.28;51.73;101957.53;683214;29;1213;-82
2023/04/18 00:01:13;;;;;;;8.70;7.50;;;;;;;9.34;51.67;101962.19;680508;29;1008;-83
2023/04/18 00:01:37;;;;;;;8.57;7.57;;;;;;;9.32;51.76;101953.41;680758;29;819;-83
2023/04/18 00:01:57;;;;;;;8.48;7.57;;;;;;;9.36;51.77;101964.88;688535;28;1234;-83
2023/04/18 00:02:18;;;;;;;8.13;7.33;;;;;;;9.34;51.54;101954.34;685740;28;1142;-83
2023/04/18 00:02:38;;;;;;;8.03;7.23;;;;;;;9.37;51.44;101966.66;683184;29;1084;-83
2023/04/18 00:02:59;;;;;;;7.72;6.93;;;;;;;9.29;51.70;101958.47;685922;28;984;-83
2023/04/18 00:03:20;;;;;;;7.70;6.90;;;;;;;9.26;52.04;101959.19;682983;29;1266;-83
2023/04/18 00:03:41;;;;;;;7.80;7.00;;;;;;;9.26;51.66;101963.50;688671;28;861;-83
2023/04/18 00:04:01;;;;;;;8.47;7.63;;;;;;;9.26;51.98;101969.59;685947;28;989;-82
2023/04/18 00:04:22;;;;;;;8.80;7.80;;;;;;;9.18;51.83;101958.78;685852;28;1207;-83
2023/04/18 00:04:46;;;;;;;9.93;7.82;;;;;;;9.28;51.91;101977.50;688635;28;859;-83
2023/04/18 00:05:07;;;;;;;9.45;7.30;;;;;;;9.21;52.05;101960.63;688546;28;1079;-83
2023/04/18 00:05:28;;;;;;;8.20;6.82;;;;;;;9.22;52.19;101964.16;685784;28;1544;-83
2023/04/18 00:05:49;;;;;;;7.40;6.70;;;;;;;9.18;52.11;101961.41;683317;29;907;-83
2023/04/18 00:06:11;;;;;;;7.97;7.13;;;;;;;9.17;51.86;101958.72;683162;29;1140;-82
2023/04/18 00:06:34;;;;;;;8.57;7.35;;;;;;;9.22;52.12;101966.75;683195;28;1244;-83
2023/04/18 00:06:55;;;;;;;8.15;7.07;;;;;;;9.24;52.03;101957.31;685633;28;1146;-83
2023/04/18 00:07:16;;;;;;;7.40;6.60;;;;;;;9.25;52.08;101957.41;683056;29;1169;-83
2023/04/18 00:07:37;;;;;;;7.35;6.65;;;;;;;9.30;51.91;101966.38;683296;29;1344;-83
2023/04/18 00:07:58;;;;;;;7.40;6.70;;;;;;;9.26;52.16;101956.59;683267;29;944;-83
2023/04/18 00:08:18;;;;;;;7.83;7.10;;;;;;;9.34;51.63;101970.00;683116;29;1072;-83
2023/04/18 00:08:39;;;;;;;7.95;7.15;;;;;;;9.38;51.95;101965.84;683322;28;736;-83
2023/04/18 00:09:00;;;;;;;8.63;7.25;;;;;;;9.31;51.60;101957.72;685803;28;1362;-83
2023/04/18 00:09:20;;;;;;;8.20;6.80;;;;;;;9.31;51.42;101952.50;688440;28;1296;-82
2023/04/18 00:09:41;;;;;;;7.55;6.70;;;;;;;9.31;51.69;101957.72;688610;28;1216;-83
2023/04/18 00:10:04;;;;;;;7.40;6.70;;;;;;;9.39;51.47;101965.94;685718;28;1138;-83
2023/04/18 00:10:25;;;;;;;7.65;6.90;;;;;;;9.28;51.54;101954.06;683090;28;1262;-83
2023/04/18 00:10:46;;;;;;;7.82;7.07;;;;;;;9.30;51.91;101958.53;680578;29;1186;-83
2023/04/18 00:11:15;;;;;;;8.07;7.28;;;;;;;9.29;51.59;101948.91;685830;28;1241;-83
2023/04/18 00:11:36;;;;;;;7.85;7.05;;;;;;;9.30;51.66;101952.44;688565;28;776;-83
2023/04/18 00:11:57;;;;;;;7.97;7.17;;;;;;;9.31;51.71;101957.72;685916;28;993;-83
2023/04/18 00:12:17;;;;;;;8.00;7.20;;;;;;;9.31;51.49;101957.72;682950;29;1170;-82
2023/04/18 00:12:39;;;;;;;7.43;6.73;;;;;;;9.25;51.67;101960.00;683222;28;1212;-83
2023/04/18 00:12:59;;;;;;;7.43;6.70;;;;;;;9.35;51.69;101968.28;685830;28;1339;-83
2023/04/18 00:13:20;;;;;;;7.38;6.68;;;;;;;9.35;51.61;101969.22;682612;28;1136;-83
2023/04/18 00:13:40;;;;;;;7.23;6.53;;;;;;;9.35;51.57;101971.81;685544;28;787;-83
2023/04/18 00:14:02;;;;;;;7.20;6.50;;;;;;;9.37;51.39;101977.09;685732;28;977;-83
2023/04/18 00:14:22;;;;;;;7.15;6.45;;;;;;;9.28;51.78;101957.53;683072;29;1458;-83
2023/04/18 00:14:43;;;;;;;7.32;6.63;;;;;;;9.29;51.85;101963.66;685966;28;1236;-83
2023/04/18 00:15:07;;;;;;;7.63;6.93;;;;;;;9.29;51.62;101964.53;685751;28;955;-83
2023/04/18 00:15:28;;;;;;;8.25;7.45;;;;;;;9.24;51.82;101960.81;685802;28;1194;-83
2023/04/18 00:15:48;;;;;;;10.02;7.60;;;;;;;9.18;51.73;101955.28;688642;28;836;-83
2023/04/18 00:16:09;;;;;;;9.13;6.97;;;;;;;9.19;52.03;101959.69;685751;28;1264;-83
2023/04/18 00:16:31;;;;;;;8.60;6.53;;;;;;;9.16;51.85;101955.19;685904;28;733;-83
2023/04/18 00:16:52;;;;;;;7.35;6.40;;;;;;;9.13;51.58;101955.03;683001;29;1109;-83
2023/04/18 00:17:14;;;;;;;9.85;6.70;;;;;;;9.17;51.64;101974.34;688314;28;1428;-82
2023/04/18 00:17:38;;;;;;;10.07;6.90;;;;;;;9.10;52.11;101951.38;685761;28;1973;-83
2023/04/18 00:18:01;;;;;;;9.45;6.70;;;;;;;9.13;51.86;101961.94;680329;29;1268;-83
2023/04/18 00:18:24;;;;;;;7.50;6.70;;;;;;;9.17;51.87;101969.13;687897;28;1298;-83
2023/04/18 00:18:47;;;;;;;8.38;6.75;;;;;;;9.14;52.14;101972.47;691278;28;925;-82
2023/04/18 00:19:07;;;;;;;8.40;6.88;;;;;;;9.08;52.01;101950.41;685729;28;1194;-82
2023/04/18 00:19:28;;;;;;;8.38;6.70;;;;;;;9.11;52.19;101959.28;685903;28;797;-83
2023/04/18 00:19:50;;;;;;;7.80;6.72;;;;;;;9.07;51.87;101957.31;691217;28;1251;-82
2023/04/18 00:20:11;;;;;;;8.88;6.80;;;;;;;9.12;51.97;101960.16;688484;28;882;-83
2023/04/18 00:20:32;;;;;;;8.20;6.70;;;;;;;9.10;52.19;101957.47;685762;28;1202;-83
2023/04/18 00:20:53;;;;;;;7.27;6.57;;;;;;;9.11;52.32;101963.59;685788;28;1188;-83
2023/04/18 00:21:15;;;;;;;7.40;6.70;;;;;;;9.12;52.00;101960.16;685750;28;1308;-83
2023/04/18 00:21:36;;;;;;;7.57;6.57;;;;;;;9.09;52.19;101960.00;685808;28;1101;-83
2023/04/18 00:21:58;;;;;;;7.53;6.45;;;;;;;9.19;52.01;101970.09;685858;28;1013;-83
2023/04/18 00:22:22;;;;;;;6.90;6.20;;;;;;;9.08;51.79;101958.22;680377;28;1025;-83
2023/04/18 00:22:44;;;;;;;6.93;5.90;;;;;;;9.12;52.29;101975.78;683203;28;1224;-83
2023/04/18 00:23:05;;;;;;;6.80;6.05;;;;;;;9.07;52.24;101959.03;685709;28;1438;-83
2023/04/18 00:23:27;;;;;;;7.22;6.53;;;;;;;9.03;52.33;101961.47;685856;28;953;-83
2023/04/18 00:23:47;;;;;;;7.70;6.90;;;;;;;8.97;52.00;101958.53;683243;29;803;-84
2023/04/18 00:24:08;;;;;;;8.07;7.28;;;;;;;8.99;52.09;101962.13;682968;29;1263;-84
2023/04/18 00:24:28;;;;;;;8.37;7.57;;;;;;;8.99;52.03;101959.53;688408;28;855;-83
2023/04/18 00:24:50;;;;;;;8.00;7.20;;;;;;;9.10;52.15;101972.22;688594;28;767;-83
2023/04/18 00:25:11;;;;;;;7.28;6.57;;;;;;;8.99;52.35;101964.72;688306;28;1075;-83
2023/04/18 00:25:31;;;;;;;6.72;6.10;;;;;;;9.02;51.83;101961.38;683137;29;1295;-83
2023/04/18 00:25:52;;;;;;;7.10;6.40;;;;;;;9.08;52.21;101976.47;688495;28;1165;-83
2023/04/18 00:26:20;;;;;;;7.25;6.55;;;;;;;8.95;51.91;101951.47;683302;28;1190;-82
2023/04/18 00:26:42;;;;;;;7.35;6.65;;;;;;;9.08;52.42;101973.84;685901;28;1503;-83
2023/04/18 00:27:02;;;;;;;7.30;6.60;;;;;;;8.98;52.44;101962.91;685673;28;1207;-83
2023/04/18 00:27:23;;;;;;;7.17;6.40;;;;;;;9.01;52.21;101967.41;683238;29;911;-83
2023/04/18 00:27:44;;;;;;;7.13;6.43;;;;;;;9.10;52.25;101982.63;685804;28;1269;-83
2023/04/18 00:28:05;;;;;;;7.15;6.45;;;;;;;9.01;52.22;101959.59;685730;28;1228;-83
2023/04/18 00:28:27;;;;;;;7.25;6.55;;;;;;;9.07;52.22;101979.88;685818;28;1426;-83
2023/04/18 00:28:49;;;;;;;7.15;6.45;;;;;;;8.94;52.27;101955.75;685919;28;829;-82
2023/04/18 00:29:11;;;;;;;7.20;6.50;;;;;;;9.05;52.09;101978.06;688551;28;1271;-83
2023/04/18 00:29:31;;;;;;;7.03;6.33;;;;;;;8.97;52.01;101965.47;691333;28;958;-83
2023/04/18 00:29:52;;;;;;;7.70;6.38;;;;;;;9.04;52.52;101963.25;683102;28;1132;-83
2023/04/18 00:30:13;;;;;;;7.57;6.30;;;;;;;9.07;52.32;101977.28;685735;28;1000;-82
2023/04/18 00:30:33;;;;;;;7.15;6.20;;;;;;;9.08;52.23;101973.84;685847;28;815;-83
2023/04/18 00:31:03;;;;;;;7.63;6.23;;;;;;;9.01;52.37;101968.31;683154;29;1155;-83
2023/04/18 00:31:25;;;;;;;8.30;6.13;;;;;;;9.00;52.45;101963.00;683026;28;1333;-83
2023/04/18 00:31:46;;;;;;;8.43;6.20;;;;;;;9.02;51.93;101959.69;688528;28;1168;-84
2023/04/18 00:32:07;;;;;;;7.03;6.32;;;;;;;9.00;52.30;101963.00;688436;28;1076;-83
2023/04/18 00:32:27;;;;;;;7.10;6.40;;;;;;;9.05;52.29;101965.03;685819;28;1035;-83
2023/04/18 00:32:48;;;;;;;7.80;6.63;;;;;;;9.10;52.15;101973.09;685892;28;1225;-83
2023/04/18 00:33:27;;;;;;;7.30;6.22;;;;;;;8.97;51.97;101960.25;685791;28;1829;-83
2023/04/18 00:33:48;;;;;;;6.90;6.20;;;;;;;9.07;52.43;101969.47;683267;29;834;-82
2023/04/18 00:34:09;;;;;;;7.00;6.30;;;;;;;9.07;52.20;101979.88;680595;29;1101;-83
2023/04/18 00:34:30;;;;;;;6.80;6.10;;;;;;;9.02;52.04;101969.19;683254;29;1213;-83
2023/04/18 00:34:50;;;;;;;7.00;6.30;;;;;;;9.02;52.10;101959.69;683286;28;1248;-83
2023/04/18 00:35:13;;;;;;;7.30;6.60;;;;;;;9.10;52.20;101969.59;683313;28;1286;-83
2023/04/18 00:35:33;;;;;;;7.47;6.70;;;;;;;9.04;52.09;101963.25;684777;28;1125;-83
2023/04/18 00:35:54;;;;;;;7.25;6.55;;;;;;;9.02;52.24;101961.38;689387;28;1194;-82
2023/04/18 00:36:14;;;;;;;6.90;6.20;;;;;;;9.05;52.22;101959.81;689370;28;1123;-82
2023/04/18 00:36:35;;;;;;;7.00;6.40;;;;;;;9.09;52.06;101963.50;689514;28;982;-83
2023/04/18 00:36:56;;;;;;;7.30;6.60;;;;;;;9.15;52.12;101981.19;686679;28;1008;-83
2023/04/18 00:37:16;;;;;;;7.38;6.68;;;;;;;9.16;52.12;101981.25;686669;28;1290;-83
2023/04/18 00:37:37;;;;;;;7.00;6.30;;;;;;;9.07;52.09;101972.06;689441;28;1330;-83
2023/04/18 00:37:57;;;;;;;6.75;6.05;;;;;;;9.04;51.97;101958.03;694671;28;1163;-81
2023/04/18 00:38:18;;;;;;;7.00;6.30;;;;;;;9.09;51.89;101966.09;692074;28;1208;-83
2023/04/18 00:38:39;;;;;;;7.20;6.40;;;;;;;9.14;52.06;101979.34;689559;28;737;-83
2023/04/18 00:39:01;;;;;;;7.15;6.45;;;;;;;9.09;52.26;101970.44;686623;28;1214;-83
2023/04/18 00:39:22;;;;;;;7.10;6.40;;;;;;;9.04;52.18;101960.66;689485;28;1007;-83
2023/04/18 00:39:42;;;;;;;7.20;6.50;;;;;;;9.07;52.03;101972.94;691939;28;1133;-82
2023/04/18 00:40:04;;;;;;;6.93;6.22;;;;;;;9.11;52.27;101976.59;686705;28;1256;-83
2023/04/18 00:40:25;;;;;;;6.90;6.20;;;;;;;9.05;51.98;101970.25;686552;28;1041;-82
2023/04/18 00:40:45;;;;;;;6.70;6.10;;;;;;;9.07;52.28;101967.72;686767;28;1286;-81
2023/04/18 00:41:06;;;;;;;7.30;6.60;;;;;;;9.11;52.51;101974.00;688363;28;1200;-83
2023/04/18 00:41:27;;;;;;;8.02;6.75;;;;;;;9.08;51.91;101972.13;685535;29;1009;-83
2023/04/18 00:41:47;;;;;;;8.20;6.78;;;;;;;9.05;52.54;101965.03;687947;28;1065;-83
2023/04/18 00:42:08;;;;;;;7.70;6.40;;;;;;;9.00;52.47;101956.09;684020;28;1255;-83
2023/04/18 00:42:29;;;;;;;7.05;6.35;;;;;;;9.10;52.38;101974.81;684473;28;1183;-83
2023/04/18 00:42:49;;;;;;;7.20;6.50;;;;;;;9.09;52.31;101970.44;686430;28;847;-82
2023/04/18 00:43:13;;;;;;;7.00;6.40;;;;;;;9.05;52.02;101970.25;683734;29;1259;-82
2023/04/18 00:43:35;;;;;;;6.72;6.13;;;;;;;9.15;52.02;101975.97;686325;28;1492;-83
2023/04/18 00:43:56;;;;;;;6.57;5.97;;;;;;;9.04;52.28;101965.84;689086;28;982;-83
2023/04/18 00:44:17;;;;;;;6.85;6.15;;;;;;;9.04;52.08;101963.25;683589;28;1321;-82
2023/04/18 00:44:38;;;;;;;6.70;6.00;;;;;;;9.08;52.37;101976.47;686243;28;1225;-82
2023/04/18 00:44:58;;;;;;;6.57;5.97;;;;;;;9.01;51.93;101970.00;683747;28;1209;-82
2023/04/18 00:45:20;;;;;;;6.60;6.00;;;;;;;9.05;52.26;101974.56;688914;28;1197;-81
2023/04/18 00:45:41;;;;;;;6.75;6.15;;;;;;;9.09;52.40;101981.72;686173;28;1284;-82
2023/04/18 00:46:02;;;;;;;6.90;6.20;;;;;;;9.03;52.26;101979.69;683530;28;1040;-82
2023/04/18 00:46:36;;;;;;;6.60;6.00;;;;;;;9.03;52.14;101977.09;683659;28;1004;-83
2023/04/18 00:46:58;;;;;;;6.70;6.00;;;;;;;8.97;52.25;101968.94;683463;28;1486;-83
2023/04/18 00:47:19;;;;;;;7.10;6.30;;;;;;;9.00;52.33;101966.53;680676;29;1161;-80
2023/04/18 00:47:40;;;;;;;7.10;6.40;;;;;;;8.98;52.41;101973.31;683357;28;1043;-83
2023/04/18 00:48:01;;;;;;;7.60;6.80;;;;;;;8.94;52.26;101960.97;683462;29;1205;-83
2023/04/18 00:48:22;;;;;;;7.50;6.80;;;;;;;9.02;52.51;101977.91;683427;29;1067;-83
2023/04/18 00:48:43;;;;;;;7.45;6.75;;;;;;;8.91;52.60;101955.63;683405;28;1176;-83
2023/04/18 00:49:03;;;;;;;7.20;6.50;;;;;;;8.88;52.38;101955.44;683838;28;1162;-82
2023/04/18 00:49:25;;;;;;;7.30;6.50;;;;;;;8.96;52.60;101972.34;686179;28;1182;-83
2023/04/18 00:49:47;;;;;;;7.13;6.43;;;;;;;9.00;52.53;101978.63;688752;28;777;-83
2023/04/18 00:50:09;;;;;;;7.10;6.40;;;;;;;8.91;52.43;101961.69;685741;28;1235;-82
2023/04/18 00:50:30;;;;;;;7.10;6.40;;;;;;;8.97;52.55;101976.75;686069;28;767;-82
2023/04/18 00:50:52;;;;;;;7.07;6.38;;;;;;;8.86;52.42;101957.94;686069;28;954;-81
2023/04/18 00:51:23;;;;;;;7.20;6.50;;;;;;;8.94;52.60;101976.59;685998;28;1204;-81
2023/04/18 00:51:44;;;;;;;6.57;5.97;;;;;;;8.95;52.41;101972.31;685755;28;1240;-82
2023/04/18 00:52:05;;;;;;;6.40;5.80;;;;;;;8.86;52.41;101957.94;685915;28;1046;-83
2023/04/18 00:52:26;;;;;;;6.50;5.90;;;;;;;8.91;52.87;101974.72;683124;29;1034;-83
2023/04/18 00:52:47;;;;;;;6.80;6.10;;;;;;;8.94;52.62;101966.19;688522;28;1228;-83
2023/04/18 00:53:12;;;;;;;6.65;5.95;;;;;;;8.84;52.77;101958.69;685857;28;1140;-83
2023/04/18 00:53:32;;;;;;;6.70;6.00;;;;;;;8.94;52.84;101976.59;683046;29;1254;-83
2023/04/18 00:53:53;;;;;;;7.30;6.60;;;;;;;8.89;53.03;101962.41;685750;28;1163;-83
2023/04/18 00:54:17;;;;;;;7.80;7.00;;;;;;;8.96;52.63;101968.88;685604;28;1292;-83
2023/04/18 00:54:38;;;;;;;7.55;6.85;;;;;;;8.86;52.76;101960.53;683123;29;1132;-83
2023/04/18 00:54:59;;;;;;;7.22;6.53;;;;;;;8.86;52.90;101965.75;683163;29;1098;-83
2023/04/18 00:55:21;;;;;;;6.95;6.25;;;;;;;8.83;52.28;101949.09;688469;28;1181;-83
2023/04/18 00:55:41;;;;;;;6.85;6.15;;;;;;;8.91;52.69;101972.13;685791;28;1262;-82
2023/04/18 00:56:03;;;;;;;6.50;5.90;;;;;;;8.88;53.04;101958.03;688347;28;1243;-82
2023/04/18 00:56:25;;;;;;;6.70;6.10;;;;;;;8.90;52.39;101964.22;688352;28;1396;-83
2023/04/18 00:56:47;;;;;;;6.85;6.20;;;;;;;8.96;52.97;101977.56;685893;28;857;-83
2023/04/18 00:57:09;;;;;;;6.65;6.05;;;;;;;8.96;52.80;101972.34;688388;28;1096;-83
2023/04/18 00:57:31;;;;;;;7.00;6.30;;;;;;;8.96;52.91;101977.56;685756;28;1915;-83
2023/04/18 00:57:52;;;;;;;7.10;6.50;;;;;;;8.94;52.69;101970.47;683083;28;1145;-83
2023/04/18 00:58:13;;;;;;;7.28;6.65;;;;;;;8.82;52.71;101949.88;685841;28;1118;-82
2023/04/18 00:58:34;;;;;;;7.40;6.70;;;;;;;8.82;53.03;101960.28;688486;28;871;-83
2023/04/18 00:58:55;;;;;;;6.90;6.30;;;;;;;8.88;53.03;101965.84;685810;28;1355;-83
2023/04/18 00:59:16;;;;;;;7.38;6.68;;;;;;;8.87;53.08;101964.06;682886;28;1320;-83
2023/04/18 00:59:37;;;;;;;7.20;6.50;;;;;;;8.80;52.56;101954.13;685114;28;1200;-83
2023/04/18 00:59:59;;;;;;;6.97;6.30;;;;;;;8.86;53.22;101960.53;683180;28;1081;-82
2023/04/18 01:00:22;;;;;;;6.18;5.63;;;;;;;8.90;52.61;101972.03;688324;28;1433;-83
2023/04/18 01:00:42;;;;;;;6.30;5.70;;;;;;;8.82;53.14;101961.19;688579;28;1318;-83
2023/04/18 01:01:07;;;;;;;6.68;6.07;;;;;;;8.91;53.06;101971.22;685811;28;1084;-83
2023/04/18 01:01:28;;;;;;;7.07;6.38;;;;;;;8.82;52.58;101960.28;685822;28;820;-83
2023/04/18 01:01:49;;;;;;;6.93;6.22;;;;;;;8.85;52.82;101960.47;685790;28;1111;-83
2023/04/18 01:02:09;;;;;;;6.83;6.13;;;;;;;8.84;52.92;101969.97;682952;28;1394;-83
2023/04/18 01:02:32;;;;;;;6.90;6.10;;;;;;;8.85;53.02;101974.38;685857;28;1275;-83
2023/04/18 01:02:54;;;;;;;7.00;6.20;;;;;;;8.90;53.08;101979.81;693820;28;1104;-83
2023/04/18 01:03:16;;;;;;;6.82;6.13;;;;;;;8.82;52.71;101965.50;691127;28;959;-83
2023/04/18 01:03:38;;;;;;;6.75;6.07;;;;;;;8.90;52.79;101974.63;683101;28;1099;-83
2023/04/18 01:04:01;;;;;;;7.00;6.30;;;;;;;8.92;53.20;101983.44;683120;29;1110;-83
2023/04/18 01:04:21;;;;;;;6.75;6.15;;;;;;;8.93;52.67;101977.41;680438;29;1110;-83
2023/04/18 01:04:42;;;;;;;6.97;6.38;;;;;;;8.86;53.18;101959.66;685802;28;1429;-83
2023/04/18 01:05:04;;;;;;;6.80;6.20;;;;;;;8.96;52.92;101982.78;685608;28;1535;-83
2023/04/18 01:05:25;;;;;;;7.70;6.32;;;;;;;8.85;52.97;101965.69;680652;28;1394;-83
2023/04/18 01:05:46;;;;;;;7.13;6.03;;;;;;;8.86;52.84;101964.88;685844;28;863;-83
2023/04/18 01:06:06;;;;;;;7.27;6.13;;;;;;;8.90;52.87;101969.41;688424;28;1444;-83
2023/04/18 01:06:28;;;;;;;7.18;6.47;;;;;;;8.95;53.13;101977.50;688390;28;977;-83
2023/04/18 01:06:49;;;;;;;7.22;6.55;;;;;;;8.90;53.15;101964.22;688517;28;1260;-82
2023/04/18 01:07:10;;;;;;;7.40;6.67;;;;;;;8.90;52.76;101966.81;688199;28;1246;-83
2023/04/18 01:07:34;;;;;;;7.18;6.47;;;;;;;9.01;53.03;101981.31;688427;28;1239;-82
2023/04/18 01:07:59;;;;;;;7.15;6.40;;;;;;;9.03;52.99;101971.88;682935;28;1273;-83
2023/04/18 01:08:20;;;;;;;6.90;6.20;;;;;;;9.11;52.70;101982.72;682958;29;1199;-83
2023/04/18 01:08:42;;;;;;;7.24;6.58;;;;;;;9.04;53.03;101957.16;685832;28;1268;-83
2023/04/18 01:09:04;;;;;;;7.28;6.68;;;;;;;9.15;52.81;101971.63;682958;28;1458;-82
2023/04/18 01:09:25;;;;;;;7.00;6.40;;;;;;;9.13;52.42;101973.28;685722;28;974;-83
2023/04/18 01:09:46;;;;;;;6.93;6.30;;;;;;;9.13;52.49;101972.38;683123;28;1417;-83
2023/04/18 01:10:08;;;;;;;6.60;6.00;;;;;;;9.14;52.68;101968.94;688375;28;1271;-83
2023/04/18 01:10:29;;;;;;;6.70;6.10;;;;;;;9.11;52.38;101959.28;688398;28;1139;-82
2023/04/18 01:10:50;;;;;;;6.97;6.28;;;;;;;9.16;52.71;101956.91;688403;28;1369;-82
2023/04/18 01:11:11;;;;;;;7.47;6.68;;;;;;;9.19;52.26;101954.47;685604;28;1479;-82
2023/04/18 01:11:33;;;;;;;7.32;6.53;;;;;;;9.31;52.40;101967.25;685922;28;879;-83
2023/04/18 01:11:53;;;;;;;7.23;6.53;;;;;;;9.29;52.25;101959.34;685799;28;1051;-83
2023/04/18 01:12:14;;;;;;;7.05;6.35;;;;;;;9.35;52.40;101965.69;682829;28;1330;-83
2023/04/18 01:12:36;;;;;;;7.10;6.40;;;;;;;9.35;52.50;101963.09;683143;28;1270;-83
2023/04/18 01:13:13;;;;;;;6.82;6.22;;;;;;;9.48;52.36;101973.34;687629;28;1127;-83
2023/04/18 01:13:34;;;;;;;6.80;6.20;;;;;;;9.45;52.45;101965.34;685733;28;903;-83
2023/04/18 01:13:59;;;;;;;6.57;5.97;;;;;;;9.49;52.31;101967.31;685813;28;1299;-83
2023/04/18 01:14:21;;;;;;;6.72;6.03;;;;;;;9.46;51.99;101961.91;685570;28;1255;-83
2023/04/18 01:14:42;;;;;;;7.13;6.43;;;;;;;9.56;51.97;101959.00;685812;28;1118;-83
2023/04/18 01:15:06;;;;;;;7.35;6.57;;;;;;;9.63;51.69;101970.63;683041;29;1144;-83
2023/04/18 01:15:28;;;;;;;6.93;5.93;;;;;;;9.55;51.67;101953.69;685774;28;911;-82
2023/04/18 01:15:50;;;;;;;6.93;5.80;;;;;;;9.65;51.65;101962.88;687260;28;784;-83
2023/04/18 01:16:11;;;;;;;6.40;5.68;;;;;;;9.67;51.81;101950.81;685695;28;1551;-83
2023/04/18 01:16:32;;;;;;;6.43;5.83;;;;;;;9.66;51.46;101956.84;691055;28;1127;-83
2023/04/18 01:16:53;;;;;;;6.68;6.03;;;;;;;9.76;51.36;101964.31;688380;28;1324;-83
2023/04/18 01:17:15;;;;;;;7.07;6.38;;;;;;;9.68;51.63;101952.59;688276;28;1186;-82
2023/04/18 01:17:38;;;;;;;7.22;6.15;;;;;;;9.76;51.13;101956.50;688392;28;1910;-83
2023/04/18 01:17:59;;;;;;;7.20;6.03;;;;;;;9.79;51.48;101961.88;688268;28;1402;-83
2023/04/18 01:18:21;;;;;;;7.33;5.93;;;;;;;9.80;51.36;101955.84;688284;28;1179;-83
2023/04/18 01:18:42;;;;;;;6.70;6.00;;;;;;;9.80;51.09;101953.25;683128;28;1255;-83
2023/04/18 01:19:03;;;;;;;6.78;6.10;;;;;;;9.85;51.50;101962.16;685612;28;1195;-82
2023/04/18 01:19:24;;;;;;;6.80;6.20;;;;;;;9.82;51.21;101945.47;685637;28;1174;-83
2023/04/18 01:19:48;;;;;;;6.82;6.22;;;;;;;9.89;51.16;101957.13;685730;28;1397;-83
2023/04/18 01:20:09;;;;;;;7.10;6.40;;;;;;;9.96;50.89;101961.81;685547;28;1541;-83
2023/04/18 01:20:30;;;;;;;7.18;6.22;;;;;;;9.90;50.88;101953.69;685669;28;1329;-83
2023/04/18 01:20:53;;;;;;;7.18;6.18;;;;;;;9.91;50.97;101945.03;685689;28;1326;-83
2023/04/18 01:21:14;;;;;;;6.65;6.03;;;;;;;9.93;51.15;101952.13;685571;28;1295;-83
2023/04/18 01:21:42;;;;;;;7.00;6.30;;;;;;;10.00;50.63;101961.16;685759;28;756;-83
2023/04/18 01:22:06;;;;;;;7.00;6.28;;;;;;;9.99;50.93;101960.28;683039;28;1120;-83
2023/04/18 01:22:27;;;;;;;6.85;6.15;;;;;;;9.94;50.78;101948.69;685466;28;1241;-83
2023/04/18 01:22:49;;;;;;;6.80;6.10;;;;;;;10.03;50.61;101955.19;685706;28;1085;-83
2023/04/18 01:23:10;;;;;;;6.63;6.03;;;;;;;10.02;50.89;101954.31;685631;28;1243;-83
2023/04/18 01:23:50;;;;;;;6.35;5.75;;;;;;;10.09;50.29;101958.97;683082;28;938;-83
2023/04/18 01:24:13;;;;;;;6.32;5.72;;;;;;;10.11;50.37;101964.28;685659;28;1039;-83
2023/04/18 01:24:35;;;;;;;6.70;6.00;;;;;;;10.10;50.34;101963.41;685824;28;815;-83
2023/04/18 01:24:56;;;;;;;6.75;6.15;;;;;;;10.09;50.41;101964.19;685550;28;988;-83
2023/04/18 01:25:16;;;;;;;7.05;6.40;;;;;;;10.08;50.28;101956.31;685494;28;1238;-83
2023/04/18 01:25:37;;;;;;;6.70;6.10;;;;;;;10.10;50.47;101960.81;685733;28;1249;-83
2023/04/18 01:25:58;;;;;;;6.80;6.10;;;;;;;10.10;50.54;101955.59;685665;28;1353;-83
2023/04/18 01:26:19;;;;;;;6.78;6.07;;;;;;;10.10;50.21;101950.38;682896;29;1637;-83
2023/04/18 01:26:42;;;;;;;6.80;6.10;;;;;;;10.12;50.67;101950.41;685749;28;1077;-83
2023/04/18 01:27:03;;;;;;;7.20;5.97;;;;;;;10.11;50.70;101940.81;685459;28;1025;-83
2023/04/18 01:27:24;;;;;;;6.93;6.10;;;;;;;10.09;50.43;101939.84;682984;28;1201;-83
2023/04/18 01:27:46;;;;;;;8.10;6.20;;;;;;;10.12;50.27;101945.19;680395;29;1224;-83
2023/04/18 01:28:07;;;;;;;7.88;6.28;;;;;;;10.09;50.20;101945.94;682904;29;1106;-83
2023/04/18 01:28:28;;;;;;;8.43;5.90;;;;;;;10.15;50.44;101959.28;683044;29;1175;-83
2023/04/18 01:28:50;;;;;;;8.13;6.03;;;;;;;10.13;50.51;101955.72;685851;28;905;-84
2023/04/18 01:29:11;;;;;;;7.10;5.80;;;;;;;10.09;50.62;101942.47;685486;28;1488;-82
2023/04/18 01:29:31;;;;;;;6.60;6.00;;;;;;;10.12;50.65;101950.41;685728;28;941;-83
2023/04/18 01:31:42;;;;;;;6.80;6.10;;;;;;;10.24;50.13;101955.38;690164;28;1136;-83
2023/04/18 01:32:03;;;;;;;6.22;5.63;;;;;;;10.25;50.42;101957.16;693766;28;1093;-83
2023/04/18 01:32:23;;;;;;;6.27;5.60;;;;;;;10.15;50.45;101951.47;691028;28;1341;-83
2023/04/18 01:32:44;;;;;;;6.25;5.65;;;;;;;10.22;50.23;101957.00;685735;28;1301;-83
2023/04/18 01:33:05;;;;;;;6.40;5.80;;;;;;;10.28;50.07;101963.41;685582;28;1133;-82
2023/04/18 01:33:26;;;;;;;6.40;5.80;;;;;;;10.32;50.15;101964.47;688381;28;1117;-83
2023/04/18 01:33:46;;;;;;;6.60;6.00;;;;;;;10.21;50.02;101943.03;685713;28;1130;-83
2023/04/18 01:34:10;;;;;;;6.68;6.07;;;;;;;10.26;50.02;101945.94;682917;29;1195;-83
2023/04/18 01:34:30;;;;;;;6.43;5.82;;;;;;;10.31;49.87;101949.63;682997;29;1110;-82
2023/04/18 01:34:51;;;;;;;6.80;6.20;;;;;;;10.31;50.01;101951.38;683076;29;1160;-82
2023/04/18 01:35:11;;;;;;;6.90;6.22;;;;;;;10.27;49.79;101950.31;685578;28;1069;-83
2023/04/18 01:35:32;;;;;;;7.30;6.60;;;;;;;10.32;49.66;101954.03;685725;28;1197;-83
2023/04/18 01:35:53;;;;;;;7.13;6.43;;;;;;;10.36;49.57;101961.19;682868;29;1283;-82
2023/04/18 01:36:14;;;;;;;7.00;6.30;;;;;;;10.28;49.57;101936.44;683056;28;1076;-83
2023/04/18 01:36:35;;;;;;;7.10;6.40;;;;;;;10.41;49.59;101959.72;688531;28;713;-82
2023/04/18 01:36:56;;;;;;;7.43;6.63;;;;;;;10.32;49.81;101950.53;685367;28;1124;-82
2023/04/18 01:37:16;;;;;;;7.77;6.70;;;;;;;10.30;49.48;101945.25;685381;28;1078;-82
2023/04/18 01:37:37;;;;;;;7.15;6.32;;;;;;;10.31;49.81;101949.63;682970;28;1906;-83
2023/04/18 01:37:58;;;;;;;7.05;6.03;;;;;;;10.32;49.71;101948.81;688497;28;1024;-82
2023/04/18 01:38:21;;;;;;;6.70;6.00;;;;;;;10.33;49.74;101950.59;685475;28;1073;-82
2023/04/18 01:38:41;;;;;;;6.60;6.00;;;;;;;10.37;49.59;101957.75;685745;28;764;-82
2023/04/18 01:39:02;;;;;;;6.80;6.20;;;;;;;10.40;49.55;101957.91;688182;28;1163;-83
2023/04/18 01:39:23;;;;;;;6.78;6.18;;;;;;;10.44;49.27;101958.94;685756;28;1089;-83
2023/04/18 01:39:43;;;;;;;7.20;6.50;;;;;;;10.38;49.54;101949.09;683015;29;1208;-83
2023/04/18 01:40:06;;;;;;;7.38;6.57;;;;;;;10.37;49.27;101947.31;682972;28;1058;-82
2023/04/18 01:40:29;;;;;;;7.05;6.35;;;;;;;10.43;49.27;101956.28;682819;28;1220;-83
2023/04/18 01:40:51;;;;;;;6.55;5.95;;;;;;;10.38;49.25;101941.28;680336;28;1975;-82
2023/04/18 01:41:11;;;;;;;6.32;5.72;;;;;;;10.42;49.27;101950.16;682858;28;1157;-83
2023/04/18 01:41:32;;;;;;;6.87;6.17;;;;;;;10.44;49.27;101955.44;683070;28;1178;-83
2023/04/18 01:41:52;;;;;;;6.93;6.22;;;;;;;10.46;49.45;101951.19;682923;29;1310;-82
2023/04/18 01:42:13;;;;;;;6.95;6.32;;;;;;;10.37;49.39;101947.31;682967;28;1134;-83
2023/04/18 01:42:34;;;;;;;7.07;6.27;;;;;;;10.41;49.19;101946.66;685832;28;741;-83
2023/04/18 01:42:54;;;;;;;7.15;6.10;;;;;;;10.35;49.30;101948.97;685671;28;1043;-83
2023/04/18 01:43:15;;;;;;;7.30;6.20;;;;;;;10.35;49.42;101948.06;682926;29;974;-82
2023/04/18 01:43:35;;;;;;;7.00;6.30;;;;;;;10.34;49.44;101941.06;685837;28;928;-83
2023/04/18 01:43:58;;;;;;;7.00;6.30;;;;;;;10.48;49.30;101960.88;688377;28;1311;-83
2023/04/18 01:44:20;;;;;;;7.00;6.30;;;;;;;10.40;48.99;101944.84;690919;28;1107;-84
2023/04/18 01:44:40;;;;;;;7.33;6.50;;;;;;;10.37;49.16;101936.88;688401;28;807;-83
2023/04/18 01:45:01;;;;;;;7.30;6.10;;;;;;;10.47;49.07;101964.31;685676;28;1100;-83
2023/04/18 01:45:21;;;;;;;7.18;6.13;;;;;;;10.46;49.22;101956.41;685642;28;1092;-83
2023/04/18 01:45:42;;;;;;;6.70;6.10;;;;;;;10.40;49.21;101952.69;685708;28;729;-83
2023/04/18 01:46:02;;;;;;;6.90;6.30;;;;;;;10.31;49.32;101944.41;685595;28;988;-82
2023/04/18 01:46:23;;;;;;;6.90;6.30;;;;;;;10.38;49.07;101954.31;680253;28;1289;-84